createdAt,value
2023-02-12T00:00:13.918Z,82.54
2023-02-12T00:02:41.455Z,82.44
2023-02-12T00:05:10.723Z,82.70
2023-02-12T00:07:37.843Z,82.56
2023-02-12T00:10:05.834Z,82.63
2023-02-12T00:12:33.145Z,82.66
2023-02-12T00:15:00.409Z,82.95
2023-02-12T00:17:27.718Z,83.17
2023-02-12T00:19:55.629Z,82.99
2023-02-12T00:22:24.816Z,82.73
2023-02-12T00:24:52.186Z,83.06
2023-02-12T00:27:19.881Z,83.10
2023-02-12T00:29:47.079Z,83.05
2023-02-12T00:32:14.514Z,83.15
2023-02-12T00:34:42.169Z,83.39
2023-02-12T00:37:09.635Z,83.48
2023-02-12T00:39:38.827Z,83.37
2023-02-12T00:42:06.509Z,82.98
2023-02-12T00:44:34.111Z,82.68
2023-02-12T00:47:01.454Z,82.51
2023-02-12T00:49:29.323Z,82.56
2023-02-12T00:51:57.089Z,82.50
2023-02-12T00:54:24.271Z,82.42
2023-02-12T00:56:53.176Z,82.20
2023-02-12T00:59:20.538Z,81.83
2023-02-12T01:01:48.269Z,81.65
2023-02-12T01:04:16.631Z,81.17
2023-02-12T01:06:44.286Z,81.00
2023-02-12T01:09:11.672Z,80.78
2023-02-12T01:11:39.365Z,81.24
2023-02-12T01:14:08.746Z,81.55
2023-02-12T01:16:36.819Z,81.53
2023-02-12T01:19:05.773Z,81.70
2023-02-12T01:21:35.571Z,81.98
2023-02-12T01:24:03.290Z,81.70
2023-02-12T01:26:31.868Z,81.61
2023-02-12T01:29:01.257Z,81.75
2023-02-12T01:31:32.503Z,82.37
2023-02-12T01:34:01.110Z,82.98
2023-02-12T01:36:29.776Z,83.06
2023-02-12T01:38:57.827Z,83.53
2023-02-12T01:41:27.506Z,84.19
2023-02-12T01:44:17.248Z,84.22
2023-02-12T01:46:47.196Z,84.41
2023-02-12T01:49:19.207Z,84.62
2023-02-12T01:51:49.070Z,84.32
2023-02-12T01:54:19.844Z,84.14
2023-02-12T01:56:47.700Z,83.88
2023-02-12T01:59:15.381Z,84.18
2023-02-12T02:01:43.216Z,84.21
2023-02-12T02:04:15.541Z,84.05
2023-02-12T02:06:49.928Z,84.06
2023-02-12T02:09:19.849Z,84.52
2023-02-12T02:11:47.249Z,84.81
2023-02-12T02:14:14.863Z,84.54
2023-02-12T02:16:47.623Z,84.51
2023-02-12T02:19:31.307Z,84.56
2023-02-12T02:22:16.973Z,84.65
2023-02-12T02:25:18.069Z,84.76
2023-02-12T02:27:56.985Z,85.05
2023-02-12T02:30:34.837Z,84.39
2023-02-12T02:33:16.074Z,83.76
2023-02-12T02:35:53.454Z,83.84
2023-02-12T02:38:34.360Z,84.46
2023-02-12T02:41:09.043Z,85.20
2023-02-12T02:43:41.323Z,85.54
2023-02-12T02:46:16.736Z,85.44
2023-02-12T02:48:49.742Z,85.74
2023-02-12T02:51:21.798Z,86.33
2023-02-12T02:53:55.029Z,86.64
2023-02-12T02:56:24.759Z,86.52
2023-02-12T02:58:57.656Z,86.36
2023-02-12T03:01:31.601Z,86.08
2023-02-12T03:04:03.735Z,85.94
2023-02-12T03:06:36.297Z,85.53
2023-02-12T03:09:10.337Z,85.17
2023-02-12T03:11:37.926Z,84.84
2023-02-12T03:14:11.822Z,84.74
2023-02-12T03:16:48.638Z,84.80
2023-02-12T03:19:19.967Z,84.86
2023-02-12T03:21:51.082Z,84.77
2023-02-12T03:24:24.391Z,84.56
2023-02-12T03:27:00.019Z,84.37
2023-02-12T03:29:27.796Z,84.15
2023-02-12T03:32:11.340Z,83.94
2023-02-12T03:34:48.580Z,84.23
2023-02-12T03:37:22.089Z,84.27
2023-02-12T03:39:57.666Z,84.12
2023-02-12T03:42:35.781Z,82.93
2023-02-12T03:45:09.007Z,83.50
2023-02-12T03:47:45.478Z,83.55
2023-02-12T03:50:17.987Z,83.62
2023-02-12T03:52:46.861Z,82.49
2023-02-12T03:55:14.887Z,82.96
2023-02-12T03:57:45.569Z,83.09
2023-02-12T04:00:16.372Z,82.98
2023-02-12T04:02:46.282Z,82.82
2023-02-12T04:05:19.038Z,82.73
2023-02-12T04:07:46.797Z,82.86
2023-02-12T04:10:14.887Z,83.24
2023-02-12T04:12:52.690Z,83.85
2023-02-12T04:15:39.070Z,84.13
2023-02-12T04:18:16.081Z,84.22
2023-02-12T04:20:53.605Z,83.46
2023-02-12T04:23:40.093Z,83.42
2023-02-12T04:26:15.078Z,83.19
2023-02-12T04:28:52.944Z,83.59
2023-02-12T04:31:30.578Z,83.46
2023-02-12T04:34:09.069Z,83.52
2023-02-12T04:36:48.338Z,83.22
2023-02-12T04:39:22.048Z,83.39
2023-02-12T04:41:49.895Z,83.56
2023-02-12T04:44:19.799Z,83.63
2023-02-12T04:46:47.303Z,83.61
2023-02-12T04:49:17.456Z,83.58
2023-02-12T04:51:46.245Z,83.68
2023-02-12T04:54:14.438Z,83.44
2023-02-12T04:56:41.786Z,83.50
2023-02-12T04:59:09.260Z,83.73
2023-02-12T05:01:38.624Z,84.19
2023-02-12T05:04:07.018Z,84.15
2023-02-12T05:06:38.767Z,84.38
2023-02-12T05:09:07.021Z,84.82
2023-02-12T05:11:34.199Z,84.67
2023-02-12T05:14:01.558Z,84.44
2023-02-12T05:16:28.858Z,84.54
2023-02-12T05:18:56.053Z,84.29
2023-02-12T05:21:23.668Z,84.24
2023-02-12T05:23:52.526Z,84.38
2023-02-12T05:26:21.547Z,84.55
2023-02-12T05:28:49.249Z,84.21
2023-02-12T05:31:21.511Z,83.94
2023-02-12T05:33:50.012Z,83.87
2023-02-12T05:36:18.604Z,84.13
2023-02-12T05:38:46.436Z,84.24
2023-02-12T05:41:17.134Z,84.44
2023-02-12T05:43:46.596Z,84.71
2023-02-12T05:46:16.041Z,84.96
2023-02-12T05:48:43.463Z,84.32
2023-02-12T05:51:13.157Z,83.83
2023-02-12T05:53:41.502Z,83.70
2023-02-12T05:56:12.059Z,83.89
2023-02-12T05:58:42.981Z,84.09
2023-02-12T06:01:13.183Z,84.19
2023-02-12T06:03:40.405Z,84.52
2023-02-12T06:06:08.301Z,84.32
2023-02-12T06:08:35.740Z,84.33
2023-02-12T06:11:04.551Z,84.68
2023-02-12T06:13:32.685Z,85.02
2023-02-12T06:16:01.717Z,85.35
2023-02-12T06:18:29.288Z,85.18
2023-02-12T06:20:56.703Z,84.92
2023-02-12T06:23:25.780Z,85.04
2023-02-12T06:25:57.600Z,84.88
2023-02-12T06:28:24.832Z,84.84
2023-02-12T06:30:52.424Z,84.68
2023-02-12T06:33:21.749Z,84.72
2023-02-12T06:35:49.046Z,84.91
2023-02-12T06:38:16.631Z,85.13
2023-02-12T06:40:44.249Z,85.47
2023-02-12T06:43:11.880Z,85.28
2023-02-12T06:45:38.792Z,85.09
2023-02-12T06:48:06.682Z,84.94
2023-02-12T06:50:34.861Z,84.77
2023-02-12T06:53:02.182Z,84.78
2023-02-12T06:55:29.385Z,84.85
2023-02-12T06:57:56.807Z,84.91
2023-02-12T07:00:24.084Z,85.12
2023-02-12T07:02:55.372Z,84.83
2023-02-12T07:05:24.125Z,84.74
2023-02-12T07:07:53.280Z,84.44
2023-02-12T07:10:20.429Z,84.49
2023-02-12T07:12:48.767Z,84.36
2023-02-12T07:15:16.320Z,84.29
2023-02-12T07:17:43.844Z,84.23
2023-02-12T07:20:12.134Z,84.18
2023-02-12T07:22:39.451Z,84.52
2023-02-12T07:25:08.673Z,84.54
2023-02-12T07:27:37.663Z,84.85
2023-02-12T07:30:05.709Z,85.10
2023-02-12T07:32:32.972Z,84.94
2023-02-12T07:35:00.735Z,84.99
2023-02-12T07:37:28.081Z,85.43
2023-02-12T07:39:55.355Z,85.47
2023-02-12T07:42:24.266Z,85.39
2023-02-12T07:44:51.404Z,85.51
2023-02-12T07:47:18.780Z,85.45
2023-02-12T07:49:46.143Z,85.25
2023-02-12T07:52:13.590Z,85.50
2023-02-12T07:54:41.043Z,85.35
2023-02-12T07:57:08.355Z,85.21
2023-02-12T07:59:37.249Z,85.08
2023-02-12T08:02:04.733Z,84.81
2023-02-12T08:04:32.104Z,84.72
2023-02-12T08:06:59.285Z,84.63
2023-02-12T08:09:28.293Z,84.62
2023-02-12T08:11:55.783Z,84.69
2023-02-12T08:14:23.726Z,84.48
2023-02-12T08:16:52.955Z,84.20
2023-02-12T08:19:23.984Z,84.05
2023-02-12T08:21:54.931Z,83.86
2023-02-12T08:24:22.448Z,83.63
2023-02-12T08:26:50.398Z,83.09
2023-02-12T08:29:20.526Z,82.80
2023-02-12T08:31:49.566Z,82.47
2023-02-12T08:34:21.142Z,82.63
2023-02-12T08:36:50.543Z,82.09
2023-02-12T08:39:18.487Z,81.91
2023-02-12T08:41:46.334Z,81.64
2023-02-12T08:44:14.216Z,81.06
2023-02-12T08:46:45.492Z,80.76
2023-02-12T08:49:14.894Z,78.36
2023-02-12T08:51:45.749Z,76.43
2023-02-12T08:54:14.792Z,74.48
2023-02-12T08:56:42.814Z,74.01
2023-02-12T08:59:12.730Z,73.20
2023-02-12T09:01:41.207Z,72.72
2023-02-12T09:04:09.373Z,72.29
2023-02-12T09:06:37.000Z,71.93
2023-02-12T09:09:06.527Z,70.75
2023-02-12T09:11:35.671Z,70.38
2023-02-12T09:14:06.360Z,67.12
2023-02-12T09:16:35.818Z,65.32
2023-02-12T09:19:03.787Z,64.81
2023-02-12T09:21:31.433Z,64.20
2023-02-12T09:23:58.839Z,64.00
2023-02-12T09:26:30.434Z,63.39
2023-02-12T09:28:58.030Z,62.92
2023-02-12T09:31:27.249Z,62.33
2023-02-12T09:33:55.812Z,61.32
2023-02-12T09:36:23.074Z,60.84
2023-02-12T09:38:50.691Z,60.55
2023-02-12T09:41:47.269Z,60.47
2023-02-12T09:44:23.159Z,60.35
2023-02-12T09:46:56.002Z,59.78
2023-02-12T09:50:01.444Z,59.36
2023-02-12T09:52:30.701Z,59.20
2023-02-12T09:54:59.281Z,58.85
2023-02-12T09:57:30.626Z,59.17
2023-02-12T10:00:03.561Z,59.05
2023-02-12T10:02:31.150Z,58.92
2023-02-12T10:05:01.977Z,58.96
2023-02-12T10:08:05.746Z,58.58
2023-02-12T10:10:47.974Z,58.36
2023-02-12T10:13:26.038Z,57.67
2023-02-12T10:16:06.170Z,57.38
2023-02-12T10:18:59.885Z,57.63
2023-02-12T10:21:42.226Z,58.19
2023-02-12T10:24:29.617Z,57.19
2023-02-12T10:27:01.533Z,57.07
2023-02-12T10:29:34.805Z,57.42
2023-02-12T10:32:07.897Z,56.89
2023-02-12T10:34:37.308Z,56.12
2023-02-12T10:37:12.394Z,55.45
2023-02-12T10:39:47.921Z,54.70
2023-02-12T10:42:19.975Z,54.27
2023-02-12T10:44:47.805Z,54.16
2023-02-12T10:47:20.102Z,53.36
2023-02-12T10:49:52.692Z,52.81
2023-02-12T10:52:35.585Z,53.03
2023-02-12T10:55:03.120Z,53.21
2023-02-12T10:57:31.360Z,53.36
2023-02-12T11:00:21.129Z,52.69
2023-02-12T11:03:02.990Z,51.99
2023-02-12T11:05:33.833Z,51.80
2023-02-12T11:08:01.898Z,51.68
2023-02-12T11:10:31.784Z,51.37
2023-02-12T11:12:59.714Z,50.83
2023-02-12T11:15:30.137Z,50.83
2023-02-12T11:18:04.341Z,50.69
2023-02-12T11:20:37.994Z,50.34
2023-02-12T11:23:07.360Z,50.13
2023-02-12T11:25:36.340Z,51.00
2023-02-12T11:28:15.890Z,50.25
2023-02-12T11:30:54.945Z,50.32
2023-02-12T11:33:29.995Z,50.11
2023-02-12T11:36:00.700Z,49.97
2023-02-12T11:38:32.685Z,49.22
2023-02-12T11:41:05.221Z,49.23
2023-02-12T11:43:35.472Z,49.17
2023-02-12T11:46:04.989Z,48.86
2023-02-12T11:48:38.082Z,48.83
2023-02-12T11:51:09.318Z,48.13
2023-02-12T11:53:41.268Z,48.34
2023-02-12T11:56:10.744Z,47.41
2023-02-12T11:58:39.337Z,47.72
2023-02-12T12:01:15.124Z,47.62
2023-02-12T12:03:54.329Z,47.50
2023-02-12T12:06:31.906Z,47.17
2023-02-12T12:09:07.028Z,47.35
2023-02-12T12:11:41.537Z,46.36
2023-02-12T12:14:17.382Z,46.66
2023-02-12T12:16:51.353Z,47.30
2023-02-12T12:19:29.019Z,47.07
2023-02-12T12:22:03.838Z,47.83
2023-02-12T12:24:39.303Z,47.21
2023-02-12T12:27:15.214Z,46.75
2023-02-12T12:29:51.369Z,46.64
2023-02-12T12:32:21.516Z,46.47
2023-02-12T12:34:50.582Z,46.40
2023-02-12T12:37:36.049Z,46.54
2023-02-12T12:40:25.324Z,45.95
2023-02-12T12:43:18.684Z,45.92
2023-02-12T12:46:07.914Z,46.25
2023-02-12T12:48:53.179Z,46.55
2023-02-12T12:51:40.611Z,46.97
2023-02-12T12:54:25.479Z,46.93
2023-02-12T12:57:02.090Z,47.15
2023-02-12T13:00:14.161Z,47.67
2023-02-12T13:03:15.370Z,46.87
2023-02-12T13:06:10.534Z,46.14
2023-02-12T13:08:57.194Z,46.17
2023-02-12T13:11:36.818Z,45.88
2023-02-12T13:14:15.284Z,46.82
2023-02-12T13:16:50.176Z,46.71
2023-02-12T13:19:29.532Z,46.63
2023-02-12T13:22:04.650Z,46.67
2023-02-12T13:24:41.485Z,46.47
2023-02-12T13:27:14.912Z,45.78
2023-02-12T13:29:47.469Z,45.26
2023-02-12T13:32:22.591Z,45.26
2023-02-12T13:34:53.415Z,45.83
2023-02-12T13:37:33.722Z,46.21
2023-02-12T13:40:05.418Z,46.41
2023-02-12T13:42:50.292Z,46.60
2023-02-12T13:45:27.329Z,46.51
2023-02-12T13:48:19.855Z,46.68
2023-02-12T13:51:00.822Z,46.18
2023-02-12T13:53:37.282Z,46.64
2023-02-12T13:56:19.774Z,45.86
2023-02-12T13:58:52.333Z,45.95
2023-02-12T14:01:46.927Z,45.69
2023-02-12T14:04:23.189Z,45.61
2023-02-12T14:06:58.733Z,45.25
2023-02-12T14:09:32.792Z,45.77
2023-02-12T14:12:04.531Z,44.59
2023-02-12T14:14:35.606Z,44.28
2023-02-12T14:17:42.686Z,44.63
2023-02-12T14:20:23.930Z,44.32
2023-02-12T14:23:13.875Z,44.69
2023-02-12T14:25:46.033Z,45.18
2023-02-12T14:28:32.674Z,45.37
2023-02-12T14:31:34.318Z,44.81
2023-02-12T14:34:44.219Z,44.88
2023-02-12T14:37:16.952Z,45.34
2023-02-12T14:39:44.463Z,46.26
2023-02-12T14:42:43.369Z,46.34
2023-02-12T14:45:42.971Z,46.15
2023-02-12T14:48:43.656Z,45.75
2023-02-12T14:51:20.345Z,45.80
2023-02-12T14:53:50.000Z,46.50
2023-02-12T14:56:21.787Z,46.43
2023-02-12T14:58:55.161Z,46.45
2023-02-12T15:01:32.750Z,46.67
2023-02-12T15:04:17.814Z,46.92
2023-02-12T15:06:53.247Z,47.47
2023-02-12T15:09:29.732Z,47.36
2023-02-12T15:12:05.909Z,47.80
2023-02-12T15:14:37.545Z,48.11
2023-02-12T15:17:11.781Z,47.91
2023-02-12T15:19:44.257Z,48.29
2023-02-12T15:22:24.879Z,48.54
2023-02-12T15:24:52.609Z,48.74
2023-02-12T15:27:21.495Z,48.51
2023-02-12T15:29:51.405Z,48.60
2023-02-12T15:32:25.451Z,48.76
2023-02-12T15:34:54.109Z,49.10
2023-02-12T15:37:25.640Z,48.89
2023-02-12T15:39:56.346Z,48.77
2023-02-12T15:42:37.580Z,49.67
2023-02-12T15:45:20.549Z,48.54
2023-02-12T15:48:02.601Z,48.87
2023-02-12T15:50:31.724Z,48.89
2023-02-12T15:52:59.848Z,48.87
2023-02-12T15:55:29.650Z,48.86
2023-02-12T15:57:59.467Z,49.43
2023-02-12T16:00:36.396Z,49.28
2023-02-12T16:03:05.242Z,49.25
2023-02-12T16:05:35.126Z,49.04
2023-02-12T16:08:03.217Z,49.72
2023-02-12T16:10:30.624Z,49.94
2023-02-12T16:12:58.902Z,49.42
2023-02-12T16:15:29.960Z,49.68
2023-02-12T16:17:58.314Z,49.38
2023-02-12T16:20:29.497Z,49.87
2023-02-12T16:22:57.620Z,49.91
2023-02-12T16:25:27.052Z,50.03
2023-02-12T16:27:59.167Z,50.50
2023-02-12T16:30:29.810Z,50.77
2023-02-12T16:32:58.225Z,50.63
2023-02-12T16:35:30.912Z,50.80
2023-02-12T16:38:04.024Z,50.88
2023-02-12T16:40:34.411Z,51.28
2023-02-12T16:43:21.355Z,51.71
2023-02-12T16:45:49.403Z,52.28
2023-02-12T16:48:20.673Z,53.64
2023-02-12T16:50:52.792Z,53.74
2023-02-12T16:53:40.880Z,53.99
2023-02-12T16:56:14.168Z,54.22
2023-02-12T16:58:41.684Z,54.67
2023-02-12T17:01:09.133Z,55.11
2023-02-12T17:03:37.846Z,54.92
2023-02-12T17:06:09.621Z,55.06
2023-02-12T17:08:36.914Z,54.96
2023-02-12T17:11:05.524Z,55.38
2023-02-12T17:13:32.775Z,55.67
2023-02-12T17:16:01.113Z,56.21
2023-02-12T17:18:29.185Z,56.30
2023-02-12T17:20:59.567Z,56.61
2023-02-12T17:23:29.685Z,56.89
2023-02-12T17:25:57.380Z,56.95
2023-02-12T17:28:24.829Z,57.20
2023-02-12T17:30:53.300Z,57.46
2023-02-12T17:33:20.652Z,57.90
2023-02-12T17:35:48.186Z,58.32
2023-02-12T17:38:15.827Z,58.52
2023-02-12T17:40:44.883Z,58.83
2023-02-12T17:43:12.574Z,59.16
2023-02-12T17:45:44.120Z,59.32
2023-02-12T17:48:12.000Z,59.46
2023-02-12T17:50:41.341Z,59.82
2023-02-12T17:53:10.136Z,60.12
2023-02-12T17:55:39.148Z,60.37
2023-02-12T17:58:08.195Z,61.03
2023-02-12T18:00:35.842Z,61.05
2023-02-12T18:03:03.232Z,61.42
2023-02-12T18:05:30.497Z,61.12
2023-02-12T18:07:58.157Z,61.02
2023-02-12T18:10:25.135Z,61.30
2023-02-12T18:12:52.495Z,61.16
2023-02-12T18:15:21.316Z,61.04
2023-02-12T18:17:48.501Z,61.11
2023-02-12T18:20:15.545Z,61.42
2023-02-12T18:22:42.860Z,61.25
2023-02-12T18:25:10.081Z,61.09
2023-02-12T18:27:37.297Z,60.74
2023-02-12T18:30:05.847Z,61.29
2023-02-12T18:32:36.098Z,61.32
2023-02-12T18:35:03.661Z,61.00
2023-02-12T18:37:31.011Z,61.20
2023-02-12T18:39:58.393Z,61.44
2023-02-12T18:42:25.824Z,61.66
2023-02-12T18:44:53.412Z,61.68
2023-02-12T18:47:20.725Z,62.08
2023-02-12T18:49:50.016Z,62.44
2023-02-12T18:52:17.365Z,62.93
2023-02-12T18:54:44.820Z,63.00
2023-02-12T18:57:12.072Z,63.30
2023-02-12T18:59:39.428Z,63.77
2023-02-12T19:02:07.767Z,64.20
2023-02-12T19:04:35.151Z,64.78
2023-02-12T19:07:04.457Z,65.10
2023-02-12T19:09:32.309Z,65.41
2023-02-12T19:12:00.586Z,65.83
2023-02-12T19:14:29.057Z,66.23
2023-02-12T19:16:56.379Z,66.89
2023-02-12T19:19:24.203Z,67.37
2023-02-12T19:21:51.702Z,67.96
2023-02-12T19:24:20.837Z,68.23
2023-02-12T19:26:51.714Z,68.45
2023-02-12T19:29:19.597Z,68.58
2023-02-12T19:31:47.190Z,69.05
2023-02-12T19:34:17.270Z,69.28
2023-02-12T19:36:44.784Z,70.01
2023-02-12T19:39:13.926Z,70.40
2023-02-12T19:41:43.098Z,70.67
2023-02-12T19:44:12.225Z,70.90
2023-02-12T19:46:40.428Z,70.90
2023-02-12T19:49:12.075Z,71.10
2023-02-12T19:51:39.882Z,71.05
2023-02-12T19:54:07.002Z,71.28
2023-02-12T19:56:35.132Z,71.47
2023-02-12T19:59:04.392Z,71.94
2023-02-12T20:01:31.566Z,71.75
2023-02-12T20:03:59.953Z,72.02
2023-02-12T20:06:29.645Z,72.10
2023-02-12T20:08:57.007Z,71.93
2023-02-12T20:11:26.937Z,72.28
2023-02-12T20:13:54.677Z,72.88
2023-02-12T20:16:24.892Z,73.04
2023-02-12T20:18:54.094Z,73.30
2023-02-12T20:21:24.327Z,73.45
2023-02-12T20:23:51.914Z,73.93
2023-02-12T20:26:21.905Z,74.53
2023-02-12T20:28:50.285Z,74.60
2023-02-12T20:31:20.470Z,75.03
2023-02-12T20:33:55.126Z,74.91
2023-02-12T20:36:23.558Z,75.09
2023-02-12T20:38:52.970Z,74.63
2023-02-12T20:41:21.317Z,74.13
2023-02-12T20:43:48.957Z,73.34
2023-02-12T20:46:18.642Z,72.58
2023-02-12T20:48:46.545Z,72.56
2023-02-12T20:51:18.432Z,72.54
2023-02-12T20:53:47.019Z,72.73
2023-02-12T20:56:16.356Z,72.76
2023-02-12T20:58:44.115Z,73.01
2023-02-12T21:01:13.816Z,73.48
2023-02-12T21:03:41.686Z,73.73
2023-02-12T21:06:10.088Z,73.98
2023-02-12T21:08:40.399Z,74.06
2023-02-12T21:11:10.024Z,74.80
2023-02-12T21:13:37.743Z,75.43
2023-02-12T21:16:07.436Z,76.09
2023-02-12T21:18:34.871Z,76.50
2023-02-12T21:21:04.830Z,76.99
2023-02-12T21:23:33.753Z,77.45
2023-02-12T21:26:05.282Z,77.58
2023-02-12T21:28:33.637Z,77.43
2023-02-12T21:31:07.685Z,77.22
2023-02-12T21:33:35.889Z,77.15
2023-02-12T21:36:05.804Z,76.56
2023-02-12T21:38:34.307Z,76.46
2023-02-12T21:41:12.296Z,75.95
2023-02-12T21:43:41.141Z,76.02
2023-02-12T21:46:09.444Z,76.12
2023-02-12T21:48:37.689Z,76.10
2023-02-12T21:51:06.779Z,75.74
2023-02-12T21:53:34.022Z,75.82
2023-02-12T21:56:03.618Z,75.66
2023-02-12T21:58:32.495Z,75.14
2023-02-12T22:01:06.832Z,75.33
2023-02-12T22:03:34.089Z,75.38
2023-02-12T22:06:02.168Z,75.04
2023-02-12T22:08:30.751Z,74.68
2023-02-12T22:10:58.435Z,75.73
2023-02-12T22:13:25.963Z,74.85
2023-02-12T22:15:55.458Z,73.69
2023-02-12T22:18:22.781Z,73.25
2023-02-12T22:20:50.072Z,73.36
2023-02-12T22:23:17.401Z,74.12
2023-02-12T22:25:44.684Z,73.20
2023-02-12T22:28:11.864Z,73.36
2023-02-12T22:30:39.537Z,73.14
2023-02-12T22:33:08.739Z,73.25
2023-02-12T22:35:35.948Z,72.30
2023-02-12T22:38:03.557Z,71.56
2023-02-12T22:40:30.686Z,72.64
2023-02-12T22:42:58.670Z,73.07
2023-02-12T22:45:26.179Z,72.29
2023-02-12T22:47:53.361Z,72.31
2023-02-12T22:50:21.591Z,71.91
2023-02-12T22:52:49.192Z,71.91
2023-02-12T22:55:16.633Z,71.35
2023-02-12T22:57:44.036Z,70.81
2023-02-12T23:00:12.525Z,70.33
2023-02-12T23:02:39.785Z,70.52
2023-02-12T23:05:07.305Z,70.01
2023-02-12T23:07:36.715Z,70.61
2023-02-12T23:10:04.186Z,71.14
2023-02-12T23:12:31.566Z,71.85
2023-02-12T23:14:59.307Z,70.96
2023-02-12T23:17:26.634Z,69.93
2023-02-12T23:19:53.994Z,70.55
2023-02-12T23:22:21.358Z,70.10
2023-02-12T23:24:51.081Z,69.61
2023-02-12T23:27:18.358Z,69.33
2023-02-12T23:29:45.973Z,68.94
2023-02-12T23:32:13.432Z,69.65
2023-02-12T23:34:40.626Z,69.57
2023-02-12T23:37:08.455Z,69.34
2023-02-12T23:39:36.583Z,69.27
2023-02-12T23:42:06.148Z,69.27
2023-02-12T23:44:33.442Z,69.64
2023-02-12T23:47:00.670Z,69.39
2023-02-12T23:49:28.773Z,69.17
2023-02-12T23:51:56.389Z,70.32
2023-02-12T23:54:23.578Z,70.30
2023-02-12T23:56:50.807Z,69.22
2023-02-12T23:59:20.155Z,68.60
